Time;durP1;ratioP1;P1;durP2;ratioP2;P2;SDS_P1;SDS_P2;PMS_P1;PMS_P2;Temp;Humidity;BMP_temperature;BMP_pressure;BME280_temperature;BME280_humidity;BME280_pressure;Samples;Min_cycle;Max_cycle;Signal;HPM_P1;HPM_P2
2020/12/15 00:01:43;;;;;;;14.60;11.05;;;;;;;4.21;74.97;94978.16;4192534;28;20044;-71
2020/12/15 00:03:45;;;;;;;16.05;11.18;;;;;;;4.21;74.97;94976.41;4191779;28;20062;-73
2020/12/15 00:05:46;;;;;;;14.90;11.15;;;;;;;4.28;75.14;94974.16;4191694;28;20052;-70
2020/12/15 00:07:47;;;;;;;14.57;11.07;;;;;;;4.22;75.61;94978.06;4190317;28;20053;-69
2020/12/15 00:09:48;;;;;;;15.10;10.98;;;;;;;4.21;74.93;94976.41;4191270;28;20488;-68
2020/12/15 00:11:50;;;;;;;16.05;11.30;;;;;;;4.26;74.73;94979.50;4191530;28;20434;-69
2020/12/15 00:13:51;;;;;;;15.60;11.05;;;;;;;4.17;75.07;94968.97;4198729;28;20127;-69
2020/12/15 00:15:52;;;;;;;13.98;10.25;;;;;;;4.20;75.36;94971.34;4176632;28;20503;-68
2020/12/15 00:17:53;;;;;;;16.05;11.00;;;;;;;4.22;75.38;94974.66;4178517;28;20092;-69
2020/12/15 00:19:55;;;;;;;13.55;10.32;;;;;;;4.17;75.07;94980.16;4193454;28;20055;-71
2020/12/15 00:21:56;;;;;;;13.10;10.40;;;;;;;4.15;75.30;94970.84;4183829;28;20045;-69
2020/12/15 00:23:57;;;;;;;15.05;10.73;;;;;;;4.16;75.02;94968.13;4183408;28;20045;-69
2020/12/15 00:25:59;;;;;;;14.35;10.77;;;;;;;4.17;75.19;94980.16;4181119;28;20057;-69
2020/12/15 00:28:00;;;;;;;14.32;10.70;;;;;;;4.21;75.13;94971.22;4190422;28;20082;-68
2020/12/15 00:30:03;;;;;;;14.68;10.88;;;;;;;4.22;74.89;94975.47;4198571;28;20113;-69
2020/12/15 00:32:04;;;;;;;13.85;10.15;;;;;;;4.23;74.76;94974.50;4165999;28;20053;-69
2020/12/15 00:34:06;;;;;;;14.32;10.77;;;;;;;4.21;74.97;94973.81;4193287;28;20388;-71
2020/12/15 00:36:07;;;;;;;13.15;10.15;;;;;;;4.19;75.10;94970.50;4175649;28;20079;-69
2020/12/15 00:38:09;;;;;;;13.90;10.50;;;;;;;4.17;75.10;94971.56;4196240;28;20052;-69
2020/12/15 00:40:10;;;;;;;15.63;11.07;;;;;;;4.18;74.95;94968.03;4190466;28;20048;-69
2020/12/15 00:42:11;;;;;;;16.67;11.05;;;;;;;4.21;74.75;94965.19;4191636;28;20514;-69
2020/12/15 00:44:13;;;;;;;15.48;11.00;;;;;;;4.23;75.01;94971.09;4188298;28;20396;-69
2020/12/15 00:46:17;;;;;;;16.95;10.95;;;;;;;4.23;75.30;94966.72;4167882;28;20091;-68
2020/12/15 00:48:18;;;;;;;16.73;11.00;;;;;;;4.24;75.23;94963.22;4190750;28;20341;-70
2020/12/15 00:50:19;;;;;;;13.25;10.38;;;;;;;4.16;75.21;94962.97;4195045;28;20136;-69
2020/12/15 00:52:28;;;;;;;11.18;8.73;;;;;;;4.08;75.18;94954.91;4192216;28;20052;-69
2020/12/15 00:54:30;;;;;;;12.45;9.02;;;;;;;4.12;75.11;94963.31;4190157;28;20424;-68
2020/12/15 00:56:31;;;;;;;13.82;9.77;;;;;;;4.13;75.11;94962.34;4189613;28;20075;-69
2020/12/15 00:58:35;;;;;;;14.52;10.00;;;;;;;4.10;74.92;94969.41;4191308;28;20052;-69
2020/12/15 01:00:36;;;;;;;13.80;9.77;;;;;;;4.05;75.59;94966.34;4188561;28;20052;-68
2020/12/15 01:02:38;;;;;;;13.98;10.25;;;;;;;4.13;74.89;94963.19;4190102;28;20053;-69
2020/12/15 01:04:40;;;;;;;14.23;10.57;;;;;;;4.14;75.65;94959.66;4190797;28;20454;-69
2020/12/15 01:06:42;;;;;;;15.65;11.02;;;;;;;4.04;75.30;94964.69;4191761;28;20110;-69
2020/12/15 01:08:43;;;;;;;12.73;9.98;;;;;;;4.10;75.61;94956.44;4181529;28;20066;-69
2020/12/15 01:10:52;;;;;;;13.55;10.45;;;;;;;4.14;75.72;94964.00;4185842;28;20133;-68
2020/12/15 01:12:53;;;;;;;13.77;9.52;;;;;;;4.07;74.61;94954.09;4190396;28;20084;-68
2020/12/15 01:14:54;;;;;;;16.45;10.18;;;;;;;4.10;75.29;94955.63;4190160;28;20371;-69
2020/12/15 01:16:55;;;;;;;12.43;9.55;;;;;;;3.98;74.82;94959.09;4190673;28;20126;-69
2020/12/15 01:18:57;;;;;;;10.93;8.95;;;;;;;3.92;75.44;94960.41;4192905;28;20044;-68
2020/12/15 01:20:58;;;;;;;13.00;10.23;;;;;;;3.90;75.33;94962.28;4176717;28;20226;-68
2020/12/15 01:22:59;;;;;;;12.35;8.68;;;;;;;3.86;75.92;94966.03;4192735;28;20060;-69
2020/12/15 01:25:00;;;;;;;13.55;9.40;;;;;;;3.77;75.73;94967.53;4192958;28;20098;-69
2020/12/15 01:27:03;;;;;;;13.63;9.77;;;;;;;3.73;75.86;94968.69;4193729;28;20052;-70
2020/12/15 01:29:04;;;;;;;15.60;10.32;;;;;;;3.64;76.29;94962.41;4192425;28;20096;-69
2020/12/15 01:31:05;;;;;;;14.57;9.85;;;;;;;3.54;76.55;94965.75;4194261;28;20192;-69
2020/12/15 01:33:07;;;;;;;13.50;10.13;;;;;;;3.54;77.20;94965.75;4193004;28;20048;-69
2020/12/15 01:35:08;;;;;;;13.15;9.57;;;;;;;3.57;76.86;94968.97;4193344;28;20055;-68
2020/12/15 01:37:09;;;;;;;16.08;10.95;;;;;;;3.49;76.60;94974.69;4194449;28;20052;-68
2020/12/15 01:39:11;;;;;;;17.30;10.60;;;;;;;3.53;76.90;94971.88;4172413;28;20049;-69
2020/12/15 01:41:13;;;;;;;17.85;10.65;;;;;;;3.56;76.42;94972.47;4176284;28;20481;-69
2020/12/15 01:43:14;;;;;;;14.30;10.18;;;;;;;3.56;76.31;94974.25;4191415;28;20509;-69
2020/12/15 01:45:15;;;;;;;15.02;10.43;;;;;;;3.59;76.48;94980.06;4174356;28;20050;-69
2020/12/15 01:47:17;;;;;;;14.32;10.27;;;;;;;3.59;76.15;94980.06;4192824;28;20063;-70
2020/12/15 01:49:18;;;;;;;16.48;10.68;;;;;;;3.61;75.94;94979.91;4192112;28;20502;-70
2020/12/15 01:51:20;;;;;;;13.95;10.40;;;;;;;3.60;75.76;94978.28;4175794;28;20057;-69
2020/12/15 01:53:21;;;;;;;15.57;11.10;;;;;;;3.69;76.02;94975.84;4174821;28;20052;-69
2020/12/15 01:55:22;;;;;;;13.82;10.55;;;;;;;3.71;75.46;94982.69;4174669;28;20139;-70
2020/12/15 01:57:24;;;;;;;15.65;10.88;;;;;;;3.68;75.88;94973.38;4175269;28;20135;-69
2020/12/15 01:59:27;;;;;;;15.65;10.50;;;;;;;3.65;75.69;94981.34;4164458;28;20044;-69
2020/12/15 02:01:29;;;;;;;13.97;9.87;;;;;;;3.66;75.98;94970.91;4176406;28;20054;-69
2020/12/15 02:03:30;;;;;;;14.05;10.45;;;;;;;3.71;75.92;94978.34;4174741;28;20305;-69
2020/12/15 02:05:31;;;;;;;13.60;9.82;;;;;;;3.66;75.91;94972.66;4192673;28;20084;-69
2020/12/15 02:07:33;;;;;;;16.75;11.05;;;;;;;3.73;76.08;94973.03;4193747;28;20139;-69
2020/12/15 02:09:34;;;;;;;13.13;10.13;;;;;;;3.69;75.78;94975.84;4174547;28;20140;-68
2020/12/15 02:11:36;;;;;;;14.07;10.80;;;;;;;3.61;75.98;94977.34;4190527;28;20048;-68
2020/12/15 02:13:38;;;;;;;14.73;10.05;;;;;;;3.61;76.15;94983.34;4192424;28;20121;-70
2020/12/15 02:15:40;;;;;;;14.23;10.43;;;;;;;3.47;76.58;94979.16;4175633;28;20131;-68
2020/12/15 02:17:42;;;;;;;14.50;10.77;;;;;;;3.58;76.19;94972.38;4175468;28;20491;-68
2020/12/15 02:19:43;;;;;;;15.38;10.07;;;;;;;3.64;76.00;94966.75;4176743;28;20057;-69
2020/12/15 02:21:52;;;;;;;13.75;10.15;;;;;;;3.59;76.15;94967.09;4189762;28;20093;-68
2020/12/15 02:23:53;;;;;;;17.27;10.68;;;;;;;3.61;76.28;94972.16;4174040;28;20060;-70
2020/12/15 02:25:55;;;;;;;15.50;10.93;;;;;;;3.60;76.38;94968.75;4193334;28;20040;-69
2020/12/15 02:27:56;;;;;;;14.05;10.35;;;;;;;3.64;76.22;94965.00;4193436;28;20063;-69
2020/12/15 02:29:57;;;;;;;14.63;11.07;;;;;;;3.71;76.37;94972.34;4191332;28;20193;-69
2020/12/15 02:31:58;;;;;;;13.77;11.00;;;;;;;3.75;75.99;94977.19;4164688;28;20055;-69
2020/12/15 02:34:00;;;;;;;12.20;9.07;;;;;;;3.75;75.43;94974.59;4183655;28;20045;-68
2020/12/15 02:36:01;;;;;;;14.25;10.45;;;;;;;3.69;76.05;94980.19;4174908;28;20510;-69
2020/12/15 02:38:03;;;;;;;15.15;10.95;;;;;;;3.75;75.88;94978.94;4191667;28;20564;-67
2020/12/15 02:40:06;;;;;;;16.23;10.93;;;;;;;3.69;76.29;94970.66;4193961;28;20542;-69
2020/12/15 02:42:07;;;;;;;16.02;10.80;;;;;;;3.76;76.34;94970.22;4176146;28;20202;-69
2020/12/15 02:44:09;;;;;;;15.63;10.70;;;;;;;3.76;76.10;94976.22;4203285;28;20044;-68
2020/12/15 02:46:11;;;;;;;15.57;10.85;;;;;;;3.76;76.03;94973.63;4174903;28;20053;-68
2020/12/15 02:48:13;;;;;;;14.43;10.25;;;;;;;3.84;76.30;94978.28;4173426;28;20056;-68
2020/12/15 02:50:21;;;;;;;16.00;10.57;;;;;;;3.69;76.05;94975.84;4176441;28;20176;-68
2020/12/15 02:52:23;;;;;;;14.90;9.93;;;;;;;3.81;75.41;94975.91;4173192;28;20447;-69
2020/12/15 02:54:24;;;;;;;13.57;10.13;;;;;;;3.79;75.59;94980.38;4185996;28;20055;-70
2020/12/15 02:56:26;;;;;;;13.13;9.48;;;;;;;3.68;75.88;94979.38;4193576;28;20057;-69
2020/12/15 02:58:27;;;;;;;14.73;10.05;;;;;;;3.74;76.40;94979.88;4180701;28;20048;-69
2020/12/15 03:00:29;;;;;;;15.07;10.25;;;;;;;3.72;75.98;94977.38;4185415;28;20056;-68
2020/12/15 03:02:30;;;;;;;17.02;10.85;;;;;;;3.71;75.93;94985.28;4185750;28;20048;-69
2020/12/15 03:04:32;;;;;;;15.43;10.43;;;;;;;3.74;75.49;94979.88;4197342;28;20127;-69
2020/12/15 03:06:33;;;;;;;14.93;9.82;;;;;;;3.77;76.32;94983.06;4174976;28;20049;-68
2020/12/15 03:08:35;;;;;;;14.70;10.23;;;;;;;3.75;76.01;94986.72;4192768;28;20131;-69
2020/12/15 03:10:36;;;;;;;13.13;9.23;;;;;;;3.78;75.77;94982.13;4192324;28;20060;-69
2020/12/15 03:12:38;;;;;;;13.93;9.88;;;;;;;3.72;76.50;94985.16;4190769;28;20122;-70
2020/12/15 03:14:39;;;;;;;13.60;9.35;;;;;;;3.72;76.29;94992.09;4190744;28;20439;-70
2020/12/15 03:16:40;;;;;;;13.93;9.55;;;;;;;3.77;75.73;94998.63;4192631;28;20048;-68
2020/12/15 03:18:42;;;;;;;14.35;9.85;;;;;;;3.64;76.24;95001.25;4174092;28;20057;-69
2020/12/15 03:20:47;;;;;;;12.40;8.40;;;;;;;3.59;76.31;94994.75;4191991;28;20053;-70
2020/12/15 03:22:48;;;;;;;13.27;9.57;;;;;;;3.69;76.13;94998.34;4190538;28;20418;-68
2020/12/15 03:24:49;;;;;;;14.95;10.07;;;;;;;3.71;76.41;95000.84;4191822;28;20198;-70
2020/12/15 03:26:50;;;;;;;12.75;9.43;;;;;;;3.79;75.83;95001.13;4196820;28;20060;-68
2020/12/15 03:28:52;;;;;;;12.60;9.15;;;;;;;3.76;75.90;94999.53;4199639;28;20071;-70
2020/12/15 03:30:53;;;;;;;12.10;8.90;;;;;;;3.78;76.16;94999.44;4191686;28;20057;-68
2020/12/15 03:32:54;;;;;;;13.20;10.00;;;;;;;3.74;76.18;94998.00;4173221;28;20492;-69
2020/12/15 03:34:55;;;;;;;12.10;8.77;;;;;;;3.64;75.93;95001.25;4191944;28;20060;-69
2020/12/15 03:36:57;;;;;;;12.40;9.27;;;;;;;3.66;75.90;95001.16;4191244;28;20052;-69
2020/12/15 03:38:58;;;;;;;13.18;9.10;;;;;;;3.67;76.36;95006.22;4173928;28;20440;-69
2020/12/15 03:40:59;;;;;;;12.55;8.55;;;;;;;3.75;75.83;95010.03;4191712;28;20059;-70
2020/12/15 03:43:01;;;;;;;13.07;8.60;;;;;;;3.76;75.64;95014.28;4190304;28;20051;-69
2020/12/15 03:45:06;;;;;;;12.93;8.88;;;;;;;3.79;75.49;95012.31;4192102;28;20054;-69
2020/12/15 03:47:07;;;;;;;12.43;8.98;;;;;;;3.75;76.05;95021.22;4190943;28;20048;-69
2020/12/15 03:49:08;;;;;;;14.63;9.73;;;;;;;3.76;76.02;95022.06;4190089;28;20117;-68
2020/12/15 03:51:09;;;;;;;12.23;9.20;;;;;;;3.76;75.98;95027.22;4190878;28;20110;-68
2020/12/15 03:53:11;;;;;;;12.05;8.70;;;;;;;3.73;76.25;95024.88;4190870;28;20044;-68
2020/12/15 03:55:13;;;;;;;13.10;9.23;;;;;;;3.77;75.83;95028.91;4173901;28;20095;-69
2020/12/15 03:57:14;;;;;;;12.30;8.90;;;;;;;3.78;75.97;95025.34;4191186;28;20058;-69
2020/12/15 03:59:17;;;;;;;14.57;8.02;;;;;;;3.84;75.51;95030.94;4173291;28;20387;-68
2020/12/15 04:01:18;;;;;;;11.32;8.52;;;;;;;3.89;75.74;95022.81;4174382;28;20056;-68
2020/12/15 04:03:24;;;;;;;12.32;9.18;;;;;;;3.94;75.31;95036.28;4187385;28;20060;-69
2020/12/15 04:05:25;;;;;;;12.05;8.77;;;;;;;3.97;75.32;95040.41;4171166;28;20052;-69
2020/12/15 04:07:26;;;;;;;13.88;9.23;;;;;;;4.01;75.57;95042.69;4185415;28;20242;-67
2020/12/15 04:09:27;;;;;;;12.63;9.05;;;;;;;4.03;75.61;95046.00;4197407;28;20057;-69
2020/12/15 04:11:29;;;;;;;12.02;8.63;;;;;;;4.06;75.01;95043.16;4190803;28;20059;-68
2020/12/15 04:13:31;;;;;;;12.80;9.05;;;;;;;4.00;75.50;95048.81;4187369;28;20107;-70
2020/12/15 04:15:32;;;;;;;14.75;9.40;;;;;;;4.03;75.39;95050.34;4176750;28;20067;-69
2020/12/15 04:17:36;;;;;;;12.18;8.63;;;;;;;3.99;75.49;95056.69;4174129;28;20211;-68
2020/12/15 04:19:37;;;;;;;14.55;9.68;;;;;;;3.95;75.88;95056.06;4156822;28;20149;-69
2020/12/15 04:21:38;;;;;;;12.68;9.13;;;;;;;4.02;75.84;95053.88;4185812;28;20048;-69
2020/12/15 04:23:40;;;;;;;13.25;9.10;;;;;;;3.96;75.97;95044.78;4181923;28;20298;-69
2020/12/15 04:25:55;;;;;;;14.25;9.13;;;;;;;3.94;75.49;95053.63;4176422;28;20084;-69
2020/12/15 04:27:56;;;;;;;12.70;9.05;;;;;;;3.92;75.65;95055.50;4184477;28;20414;-68
2020/12/15 04:29:58;;;;;;;13.70;9.38;;;;;;;3.92;76.19;95061.50;4172960;28;20408;-68
2020/12/15 04:31:59;;;;;;;12.23;9.30;;;;;;;3.92;75.57;95053.72;4171677;28;20052;-69
2020/12/15 04:34:01;;;;;;;12.15;9.07;;;;;;;3.93;76.20;95060.53;4192677;28;20646;-67
2020/12/15 04:36:03;;;;;;;14.82;9.48;;;;;;;3.96;75.13;95054.31;4200165;28;20143;-68
2020/12/15 04:38:05;;;;;;;12.32;9.10;;;;;;;3.90;75.87;95060.78;4191423;28;20524;-69
2020/12/15 04:40:06;;;;;;;11.07;8.73;;;;;;;3.94;75.49;95071.75;4173982;28;20495;-69
2020/12/15 04:42:08;;;;;;;11.68;8.57;;;;;;;3.93;75.49;95070.91;4176598;28;20079;-69
2020/12/15 04:44:09;;;;;;;11.63;8.73;;;;;;;3.91;76.09;95075.38;4171949;28;20103;-69
2020/12/15 04:46:11;;;;;;;12.02;8.55;;;;;;;3.93;75.91;95072.69;4191896;28;20049;-68
2020/12/15 04:48:18;;;;;;;13.90;9.48;;;;;;;3.92;75.66;95073.63;4196804;28;20083;-75
2020/12/15 04:50:20;;;;;;;12.20;9.07;;;;;;;3.96;75.71;95075.91;4172736;28;20104;-75
2020/12/15 04:52:23;;;;;;;11.52;9.00;;;;;;;3.94;75.77;95079.53;4169220;28;20215;-77
2020/12/15 04:54:30;;;;;;;12.90;9.43;;;;;;;4.01;75.76;95080.75;4193295;28;20078;-80
2020/12/15 04:56:33;;;;;;;12.02;8.82;;;;;;;4.00;75.14;95073.88;4186900;28;20475;-76
2020/12/15 04:58:35;;;;;;;12.52;8.63;;;;;;;4.01;75.72;95080.75;4177020;28;20140;-77
2020/12/15 05:00:37;;;;;;;12.82;9.35;;;;;;;3.93;75.93;95080.47;4178713;28;20052;-76
2020/12/15 05:02:44;;;;;;;12.90;9.27;;;;;;;3.97;75.69;95087.09;4206282;28;20049;-77
2020/12/15 05:04:45;;;;;;;14.65;9.35;;;;;;;3.98;75.46;95093.91;4167883;28;20046;-77
2020/12/15 05:06:52;;;;;;;12.95;8.98;;;;;;;4.05;74.85;95095.97;4190619;28;20056;-76
2020/12/15 05:08:54;;;;;;;12.07;9.00;;;;;;;4.08;75.23;95081.94;4206670;28;20056;-77
2020/12/15 05:10:55;;;;;;;12.35;8.15;;;;;;;4.09;74.57;95087.03;4185818;28;20044;-77
2020/12/15 05:12:57;;;;;;;11.32;8.18;;;;;;;4.12;74.90;95088.56;4192264;28;20470;-77
2020/12/15 05:14:58;;;;;;;12.13;8.57;;;;;;;3.90;75.62;95091.88;4191493;28;20409;-78
2020/12/15 05:16:59;;;;;;;13.70;9.43;;;;;;;3.91;76.07;95093.53;4177753;28;20125;-78
2020/12/15 05:19:05;;;;;;;12.15;8.80;;;;;;;4.04;75.30;95099.50;4175977;28;20049;-77
2020/12/15 05:21:17;;;;;;;11.93;8.75;;;;;;;4.05;75.27;95111.53;4191920;28;20045;-77
2020/12/15 05:23:21;;;;;;;12.82;8.77;;;;;;;4.15;74.83;95106.53;4175973;28;20052;-78
2020/12/15 05:25:31;;;;;;;14.35;9.85;;;;;;;4.25;74.82;95104.91;4199460;28;20072;-78
2020/12/15 05:27:39;;;;;;;16.88;10.85;;;;;;;4.30;73.73;95104.56;4171814;28;20462;-77
2020/12/15 05:29:41;;;;;;;17.48;12.93;;;;;;;4.23;74.32;95103.38;4191794;28;20064;-78
2020/12/15 05:31:43;;;;;;;14.07;9.88;;;;;;;4.21;74.55;95106.06;4165205;28;20114;-77
2020/12/15 05:33:50;;;;;;;16.00;11.32;;;;;;;4.24;74.61;95105.03;4176029;28;20045;-78
2020/12/15 05:35:52;;;;;;;15.57;11.23;;;;;;;4.28;74.75;95109.03;4176168;28;20102;-77
2020/12/15 05:37:55;;;;;;;16.60;11.13;;;;;;;4.30;74.09;95099.38;4179475;28;20053;-77
2020/12/15 05:40:00;;;;;;;12.95;9.00;;;;;;;4.23;75.03;95109.38;4176895;28;20060;-77
2020/12/15 05:42:04;;;;;;;12.13;8.98;;;;;;;4.22;74.65;95110.31;4175308;28;20122;-77
2020/12/15 05:44:05;;;;;;;11.98;8.60;;;;;;;4.27;74.70;95105.63;4194408;28;20427;-79
2020/12/15 05:46:07;;;;;;;13.20;9.27;;;;;;;4.30;74.25;95113.19;4175665;28;20504;-78
2020/12/15 05:48:09;;;;;;;12.73;8.82;;;;;;;4.32;74.31;95113.06;4160058;28;20281;-77
2020/12/15 05:50:11;;;;;;;11.68;8.70;;;;;;;4.28;74.04;95122.00;4176901;28;20041;-78
2020/12/15 05:52:12;;;;;;;12.50;8.60;;;;;;;4.22;74.19;95115.50;4177898;28;20076;-76
2020/12/15 05:54:14;;;;;;;8.18;6.38;;;;;;;4.15;74.23;95114.31;4176890;28;20056;-77
2020/12/15 05:56:20;;;;;;;10.30;7.63;;;;;;;4.18;73.70;95118.44;4177113;28;20112;-76
2020/12/15 05:58:21;;;;;;;12.27;7.38;;;;;;;4.03;74.64;95118.59;4175627;28;20279;-78
2020/12/15 06:00:31;;;;;;;10.35;7.75;;;;;;;4.11;74.96;95112.88;4176659;28;20133;-78
2020/12/15 06:02:32;;;;;;;10.45;7.00;;;;;;;4.16;74.78;95112.53;4176734;28;20079;-75
2020/12/15 06:04:35;;;;;;;9.98;7.35;;;;;;;4.23;74.08;95108.53;4192774;28;20048;-79
2020/12/15 06:06:36;;;;;;;9.50;7.25;;;;;;;4.20;73.76;95108.78;4194652;28;20052;-79
2020/12/15 06:08:39;;;;;;;9.10;7.05;;;;;;;4.17;74.54;95112.41;4177938;28;20079;-76
2020/12/15 06:10:41;;;;;;;10.30;7.57;;;;;;;4.23;73.61;95114.56;4160887;28;20459;-79
2020/12/15 06:12:49;;;;;;;10.07;7.38;;;;;;;4.31;74.11;95112.25;4193391;28;20114;-80
2020/12/15 06:14:51;;;;;;;10.45;7.65;;;;;;;4.40;73.66;95118.53;4176155;28;20132;-79
2020/12/15 06:16:53;;;;;;;11.77;8.02;;;;;;;4.42;73.94;95114.06;4194623;28;20559;-75
2020/12/15 06:19:01;;;;;;;11.70;8.13;;;;;;;4.45;72.96;95115.59;4163860;28;20503;-77
2020/12/15 06:21:10;;;;;;;12.70;8.38;;;;;;;4.48;73.01;95121.41;4178640;28;20045;-76
2020/12/15 06:23:14;;;;;;;10.35;7.63;;;;;;;4.40;73.19;95121.13;4175584;28;20092;-78
2020/12/15 06:25:29;;;;;;;13.32;8.52;;;;;;;4.47;73.58;95121.50;4170813;28;20067;-78
2020/12/15 06:27:35;;;;;;;14.52;11.07;;;;;;;4.51;73.56;95117.75;4170229;28;20512;-75
2020/12/15 06:29:40;;;;;;;16.65;10.25;;;;;;;4.54;73.13;95117.53;4200108;28;20060;-78
2020/12/15 06:31:49;;;;;;;13.98;10.15;;;;;;;4.59;73.09;95119.81;4165402;28;20591;-79
2020/12/15 06:33:57;;;;;;;14.10;8.93;;;;;;;4.56;73.52;95122.59;4189394;28;20049;-79
2020/12/15 06:35:59;;;;;;;11.32;8.27;;;;;;;4.59;72.84;95130.19;4192330;28;20136;-77
2020/12/15 06:38:01;;;;;;;10.70;8.00;;;;;;;4.65;73.00;95127.97;4183532;28;20052;-76
2020/12/15 06:40:05;;;;;;;9.40;7.22;;;;;;;4.69;72.71;95126.78;4182591;28;20056;-80
2020/12/15 06:42:07;;;;;;;10.82;8.15;;;;;;;4.68;73.03;95125.13;4198985;28;20048;-77
2020/12/15 06:44:09;;;;;;;14.13;9.75;;;;;;;4.72;72.99;95129.16;4163894;28;20266;-79
2020/12/15 06:46:13;;;;;;;11.45;8.55;;;;;;;4.68;73.20;95130.31;4179470;28;20095;-76
2020/12/15 06:48:22;;;;;;;12.10;9.05;;;;;;;4.70;73.29;95127.63;4200575;28;20054;-77
2020/12/15 06:50:23;;;;;;;11.63;8.50;;;;;;;4.75;72.79;95124.69;4183788;28;20099;-78
2020/12/15 06:52:28;;;;;;;10.88;8.48;;;;;;;4.74;72.88;95125.63;4199724;28;20056;-76
2020/12/15 06:54:30;;;;;;;11.70;7.97;;;;;;;4.76;72.19;95124.56;4193295;28;20136;-78
2020/12/15 06:56:32;;;;;;;11.52;8.25;;;;;;;4.78;72.48;95127.88;4181777;28;20144;-79
2020/12/15 06:58:33;;;;;;;10.82;8.05;;;;;;;4.81;72.24;95125.06;4200676;28;20110;-78
2020/12/15 07:00:39;;;;;;;12.95;8.60;;;;;;;4.76;72.62;95137.56;4180739;28;20049;-79
2020/12/15 07:02:50;;;;;;;12.43;8.30;;;;;;;4.83;72.44;95135.31;4162289;28;20083;-81
2020/12/15 07:05:23;;;;;;;13.00;8.95;;;;;;;4.75;73.30;95141.06;4195039;28;20045;-78
2020/12/15 07:07:25;;;;;;;13.48;7.93;;;;;;;4.79;72.27;95142.50;4191493;28;20049;-80
2020/12/15 07:09:26;;;;;;;14.45;9.20;;;;;;;4.83;72.57;95143.94;4195778;28;20049;-79
2020/12/15 07:11:28;;;;;;;10.18;7.20;;;;;;;4.88;72.02;95153.97;4194115;28;20305;-78
2020/12/15 07:13:29;;;;;;;11.60;7.25;;;;;;;4.86;72.33;95142.88;4177419;28;20056;-77
2020/12/15 07:15:33;;;;;;;11.70;7.85;;;;;;;4.88;71.46;95147.03;4193645;28;20056;-79
2020/12/15 07:17:35;;;;;;;10.05;7.55;;;;;;;4.93;71.71;95150.13;4175717;28;20565;-79
2020/12/15 07:19:36;;;;;;;10.50;7.35;;;;;;;4.97;71.74;95145.53;4175564;28;20061;-70
2020/12/15 07:21:37;;;;;;;11.02;8.00;;;;;;;5.06;71.43;95149.22;4194062;28;20578;-77
2020/12/15 07:23:39;;;;;;;15.77;10.38;;;;;;;4.89;72.42;95148.69;4194129;28;20078;-76
2020/12/15 07:25:40;;;;;;;14.02;9.07;;;;;;;4.61;73.29;95159.44;4182001;28;20457;-77
2020/12/15 07:27:42;;;;;;;12.43;8.50;;;;;;;4.67;73.60;95151.22;4183821;28;20057;-80
2020/12/15 07:29:52;;;;;;;24.13;8.73;;;;;;;4.38;74.10;95156.72;4173602;28;20132;-69
2020/12/15 07:31:54;;;;;;;13.68;9.73;;;;;;;4.41;75.10;95158.25;4195667;28;20109;-70
2020/12/15 07:34:08;;;;;;;15.48;9.77;;;;;;;4.56;74.91;95164.13;4174925;28;20049;-70
2020/12/15 07:36:19;;;;;;;31.65;23.55;;;;;;;4.33;75.17;95161.41;4177109;28;20068;-71
2020/12/15 07:38:21;;;;;;;32.95;23.85;;;;;;;4.24;75.68;95167.28;4191933;28;20067;-69
2020/12/15 07:40:23;;;;;;;32.92;22.95;;;;;;;4.13;76.06;95170.63;4175021;28;20045;-71
2020/12/15 07:42:24;;;;;;;31.30;20.38;;;;;;;3.98;76.03;95169.94;4171722;28;20499;-70
2020/12/15 07:44:25;;;;;;;33.58;21.27;;;;;;;3.95;77.14;95172.72;4189788;28;20518;-71
2020/12/15 07:46:27;;;;;;;39.15;23.90;;;;;;;4.05;76.88;95171.16;4192114;28;20063;-68
2020/12/15 07:48:29;;;;;;;48.13;27.20;;;;;;;4.17;76.57;95179.00;4192317;28;20048;-68
2020/12/15 07:50:32;;;;;;;41.85;22.27;;;;;;;4.36;76.15;95179.34;4174399;28;20420;-70
2020/12/15 07:52:38;;;;;;;22.98;15.68;;;;;;;4.54;75.13;95184.16;4191900;28;20044;-70
2020/12/15 07:54:39;;;;;;;18.95;12.27;;;;;;;4.72;74.50;95178.47;4170118;28;20049;-70
2020/12/15 07:56:41;;;;;;;16.80;12.25;;;;;;;4.90;73.46;95181.50;4184568;28;20561;-69
2020/12/15 07:58:44;;;;;;;17.60;12.57;;;;;;;5.04;73.50;95184.84;4163008;28;20057;-71
2020/12/15 08:00:45;;;;;;;17.58;11.60;;;;;;;5.15;72.28;95184.88;4174059;28;20115;-72
2020/12/15 08:02:48;;;;;;;17.05;11.15;;;;;;;5.28;72.18;95189.97;4173323;28;20048;-71
2020/12/15 08:04:49;;;;;;;15.90;11.65;;;;;;;5.41;71.98;95189.91;4172568;28;20053;-70
2020/12/15 08:06:53;;;;;;;16.30;10.95;;;;;;;5.50;71.40;95184.00;4174287;28;20057;-70
2020/12/15 08:08:54;;;;;;;17.88;10.25;;;;;;;5.56;70.46;95190.50;4191407;28;20044;-70
2020/12/15 08:10:55;;;;;;;14.07;9.00;;;;;;;5.57;70.54;95182.59;4188953;28;20408;-71
2020/12/15 08:12:58;;;;;;;14.40;8.57;;;;;;;5.67;70.67;95190.50;4171291;28;20060;-70
2020/12/15 08:15:00;;;;;;;13.73;8.88;;;;;;;5.70;70.20;95187.66;4190865;28;20064;-71
2020/12/15 08:17:14;;;;;;;20.15;9.88;;;;;;;5.75;70.14;95194.19;4157041;28;20093;-70
2020/12/15 08:19:16;;;;;;;14.60;9.18;;;;;;;5.73;70.21;95184.84;4191913;28;20107;-69
2020/12/15 08:21:18;;;;;;;11.55;7.93;;;;;;;5.72;70.00;95197.03;4173518;28;20075;-69
2020/12/15 08:23:22;;;;;;;14.63;9.25;;;;;;;5.82;69.50;95198.91;4173984;28;20097;-72
2020/12/15 08:25:23;;;;;;;10.68;7.57;;;;;;;5.86;69.38;95200.34;4173489;28;20057;-70
2020/12/15 08:27:26;;;;;;;9.63;7.32;;;;;;;5.77;68.83;95196.66;4172962;28;20428;-69
2020/12/15 08:29:28;;;;;;;9.27;6.68;;;;;;;5.85;68.79;95199.53;4176516;28;20103;-72
2020/12/15 08:31:30;;;;;;;9.88;6.47;;;;;;;5.82;69.00;95201.50;4195305;28;20052;-70
2020/12/15 08:33:33;;;;;;;8.25;6.35;;;;;;;5.89;68.58;95203.53;4179863;28;20136;-70
2020/12/15 08:35:34;;;;;;;7.35;5.63;;;;;;;5.73;68.04;95211.66;4198158;28;20413;-71
2020/12/15 08:37:37;;;;;;;7.30;5.10;;;;;;;5.58;68.83;95212.84;4175536;28;20453;-69
2020/12/15 08:39:40;;;;;;;7.68;5.88;;;;;;;5.64;69.59;95206.34;4160888;28;20049;-71
2020/12/15 08:41:51;;;;;;;11.13;7.35;;;;;;;5.77;69.33;95207.06;4166640;28;20583;-80
2020/12/15 08:43:52;;;;;;;10.18;7.22;;;;;;;5.82;69.17;95210.13;4195885;28;20076;-81
2020/12/15 08:45:55;;;;;;;8.65;6.57;;;;;;;5.90;68.47;95206.97;4196296;28;20055;-79
2020/12/15 08:47:58;;;;;;;9.88;6.00;;;;;;;5.98;68.35;95203.78;4160353;28;20504;-80
2020/12/15 08:50:09;;;;;;;9.43;6.97;;;;;;;6.00;68.22;95200.16;4194755;28;20071;-77
2020/12/15 08:52:20;;;;;;;10.85;7.00;;;;;;;5.82;68.80;95209.31;4193767;28;20040;-78
2020/12/15 08:54:22;;;;;;;11.88;8.73;;;;;;;5.81;68.84;95208.50;4192655;28;20056;-79
2020/12/15 08:56:23;;;;;;;10.18;7.00;;;;;;;5.88;68.74;95212.28;4189294;28;20124;-77
2020/12/15 08:58:27;;;;;;;9.52;6.65;;;;;;;5.99;68.61;95206.28;4193224;28;20118;-70
2020/12/15 09:00:33;;;;;;;10.70;6.68;;;;;;;6.09;67.90;95209.00;4194828;28;20048;-68
2020/12/15 09:02:35;;;;;;;27.05;20.00;;;;;;;5.81;69.68;95208.50;4194039;28;20048;-69
2020/12/15 09:04:37;;;;;;;19.20;13.48;;;;;;;5.89;69.61;95208.75;4194723;28;20130;-70
2020/12/15 09:06:39;;;;;;;12.68;8.43;;;;;;;6.02;68.68;95206.03;4174876;28;20454;-70
2020/12/15 09:08:48;;;;;;;21.45;15.88;;;;;;;5.48;71.29;95209.25;4194700;28;20052;-71
2020/12/15 09:10:52;;;;;;;19.05;13.77;;;;;;;4.99;72.66;95207.72;4193273;28;20048;-71
2020/12/15 09:12:53;;;;;;;26.55;17.55;;;;;;;5.23;72.81;95210.28;4176346;28;20048;-69
2020/12/15 09:15:05;;;;;;;19.80;13.75;;;;;;;5.15;73.11;95208.25;4192870;28;20041;-70
2020/12/15 09:17:07;;;;;;;23.02;15.20;;;;;;;5.13;72.98;95204.94;4193939;28;20044;-71
2020/12/15 09:19:14;;;;;;;26.63;17.05;;;;;;;5.32;73.37;95213.00;4175956;28;20492;-69
2020/12/15 09:21:18;;;;;;;23.77;16.77;;;;;;;5.61;72.74;95212.59;4194721;28;20151;-70
2020/12/15 09:23:25;;;;;;;25.10;16.10;;;;;;;5.86;71.16;95203.75;4193344;28;20044;-70
2020/12/15 09:25:26;;;;;;;21.58;14.50;;;;;;;5.74;70.64;95212.50;4176712;28;20485;-72
2020/12/15 09:27:28;;;;;;;19.25;13.25;;;;;;;5.90;70.71;95207.78;4192834;28;20052;-71
2020/12/15 09:29:29;;;;;;;12.70;7.93;;;;;;;6.14;69.68;95199.06;4158652;28;20489;-69
2020/12/15 09:31:32;;;;;;;10.13;7.47;;;;;;;6.36;68.34;95206.81;4194288;28;20048;-69
2020/12/15 09:33:34;;;;;;;19.08;12.73;;;;;;;6.60;67.50;95190.22;4196916;28;20136;-71
2020/12/15 09:35:35;;;;;;;23.35;16.67;;;;;;;6.70;67.86;95193.72;4197112;28;20522;-69
2020/12/15 09:37:41;;;;;;;28.27;18.60;;;;;;;6.65;67.59;95192.47;4192437;28;20410;-69